sensor_id;sensor_type;location;lat;lon;timestamp;pressure;altitude;pressure_sealevel;temperature;humidity
66887;BME280;67239;51.680;5.976;2023-08-06T00:00:59;100291.00;;;14.75;100.00
66887;BME280;67239;51.680;5.976;2023-08-06T00:03:26;100292.72;;;14.77;100.00
66887;BME280;67239;51.680;5.976;2023-08-06T00:05:54;100294.53;;;14.76;100.00
66887;BME280;67239;51.680;5.976;2023-08-06T00:08:21;100291.72;;;14.79;100.00
66887;BME280;67239;51.680;5.976;2023-08-06T00:10:48;100288.97;;;14.81;100.00
66887;BME280;67239;51.680;5.976;2023-08-06T00:13:15;100292.47;;;14.81;100.00
66887;BME280;67239;51.680;5.976;2023-08-06T00:15:42;100284.59;;;14.80;100.00
66887;BME280;67239;51.680;5.976;2023-08-06T00:18:09;100280.22;;;14.79;100.00
66887;BME280;67239;51.680;5.976;2023-08-06T00:20:39;100282.81;;;14.80;100.00
66887;BME280;67239;51.680;5.976;2023-08-06T00:23:07;100278.44;;;14.79;100.00
66887;BME280;67239;51.680;5.976;2023-08-06T00:25:35;100273.22;;;14.78;100.00
66887;BME280;67239;51.680;5.976;2023-08-06T00:28:03;100274.94;;;14.79;100.00
66887;BME280;67239;51.680;5.976;2023-08-06T00:30:31;100266.13;;;14.78;100.00
66887;BME280;67239;51.680;5.976;2023-08-06T00:32:58;100265.25;;;14.78;100.00
66887;BME280;67239;51.680;5.976;2023-08-06T00:35:26;100263.53;;;14.77;100.00
66887;BME280;67239;51.680;5.976;2023-08-06T00:37:53;100275.97;;;14.76;100.00
66887;BME280;67239;51.680;5.976;2023-08-06T00:40:21;100267.13;;;14.75;100.00
66887;BME280;67239;51.680;5.976;2023-08-06T00:42:49;100259.28;;;14.74;100.00
66887;BME280;67239;51.680;5.976;2023-08-06T00:45:16;100271.69;;;14.73;100.00
66887;BME280;67239;51.680;5.976;2023-08-06T00:47:44;100262.69;;;14.76;100.00
66887;BME280;67239;51.680;5.976;2023-08-06T00:50:13;100263.53;;;14.77;100.00
66887;BME280;67239;51.680;5.976;2023-08-06T00:52:40;100265.19;;;14.79;100.00
66887;BME280;67239;51.680;5.976;2023-08-06T00:55:08;100262.53;;;14.79;100.00
66887;BME280;67239;51.680;5.976;2023-08-06T00:57:37;100257.13;;;14.81;100.00
66887;BME280;67239;51.680;5.976;2023-08-06T01:00:04;100263.28;;;14.81;100.00
66887;BME280;67239;51.680;5.976;2023-08-06T01:02:32;100258.84;;;14.82;100.00
66887;BME280;67239;51.680;5.976;2023-08-06T01:04:59;100264.31;;;14.79;100.00
66887;BME280;67239;51.680;5.976;2023-08-06T01:07:38;100262.53;;;14.79;100.00
66887;BME280;67239;51.680;5.976;2023-08-06T01:16:17;100259.09;;;14.77;100.00
66887;BME280;67239;51.680;5.976;2023-08-06T01:18:47;100252.84;;;14.78;100.00
66887;BME280;67239;51.680;5.976;2023-08-06T01:21:17;100253.69;;;14.79;100.00
66887;BME280;67239;51.680;5.976;2023-08-06T01:23:46;100248.41;;;14.79;100.00
66887;BME280;67239;51.680;5.976;2023-08-06T01:26:24;100248.50;;;14.77;100.00
66887;BME280;67239;51.680;5.976;2023-08-06T01:29:08;100241.47;;;14.76;100.00
66887;BME280;67239;51.680;5.976;2023-08-06T01:31:42;100241.63;;;14.73;100.00
66887;BME280;67239;51.680;5.976;2023-08-06T01:34:23;100244.22;;;14.74;100.00
66887;BME280;67239;51.680;5.976;2023-08-06T01:36:52;100252.25;;;14.73;100.00
66887;BME280;67239;51.680;5.976;2023-08-06T01:39:21;100250.53;;;14.72;100.00
66887;BME280;67239;51.680;5.976;2023-08-06T01:41:49;100248.66;;;14.74;100.00
66887;BME280;67239;51.680;5.976;2023-08-06T01:44:17;100250.38;;;14.75;100.00
66887;BME280;67239;51.680;5.976;2023-08-06T01:46:44;100247.72;;;14.75;100.00
66887;BME280;67239;51.680;5.976;2023-08-06T01:49:11;100244.91;;;14.78;100.00
66887;BME280;67239;51.680;5.976;2023-08-06T01:51:39;100244.91;;;14.78;100.00
66887;BME280;67239;51.680;5.976;2023-08-06T01:54:06;100241.38;;;14.78;100.00
66887;BME280;67239;51.680;5.976;2023-08-06T01:56:33;100244.91;;;14.78;100.00
66887;BME280;67239;51.680;5.976;2023-08-06T01:59:00;100246.78;;;14.76;100.00
66887;BME280;67239;51.680;5.976;2023-08-06T02:01:30;100244.13;;;14.76;100.00
66887;BME280;67239;51.680;5.976;2023-08-06T02:03:58;100244.22;;;14.74;100.00
66887;BME280;67239;51.680;5.976;2023-08-06T02:06:25;100243.34;;;14.74;100.00
66887;BME280;67239;51.680;5.976;2023-08-06T02:08:52;100253.19;;;14.72;100.00
66887;BME280;67239;51.680;5.976;2023-08-06T02:11:19;100242.69;;;14.70;100.00
66887;BME280;67239;51.680;5.976;2023-08-06T02:13:46;100240.25;;;14.66;100.00
66887;BME280;67239;51.680;5.976;2023-08-06T02:16:18;100246.50;;;14.65;100.00
66887;BME280;67239;51.680;5.976;2023-08-06T02:18:45;100244.78;;;14.64;100.00
66887;BME280;67239;51.680;5.976;2023-08-06T02:21:12;100242.22;;;14.62;100.00
66887;BME280;67239;51.680;5.976;2023-08-06T02:23:39;100245.81;;;14.61;100.00
66887;BME280;67239;51.680;5.976;2023-08-06T02:26:06;100242.41;;;14.59;100.00
66887;BME280;67239;51.680;5.976;2023-08-06T02:28:33;100237.97;;;14.59;100.00
66887;BME280;67239;51.680;5.976;2023-08-06T02:31:00;100238.81;;;14.60;100.00
66887;BME280;67239;51.680;5.976;2023-08-06T02:33:28;100230.84;;;14.60;100.00
66887;BME280;67239;51.680;5.976;2023-08-06T02:35:59;100231.69;;;14.60;100.00
66887;BME280;67239;51.680;5.976;2023-08-06T02:38:30;100229.91;;;14.61;100.00
66887;BME280;67239;51.680;5.976;2023-08-06T02:41:03;100225.44;;;14.62;100.00
66887;BME280;67239;51.680;5.976;2023-08-06T02:43:31;100223.72;;;14.60;100.00
66887;BME280;67239;51.680;5.976;2023-08-06T02:45:59;100223.72;;;14.60;100.00
66887;BME280;67239;51.680;5.976;2023-08-06T02:48:27;100223.66;;;14.62;100.00
66887;BME280;67239;51.680;5.976;2023-08-06T02:50:58;100226.22;;;14.64;100.00
66887;BME280;67239;51.680;5.976;2023-08-06T02:53:28;100221.06;;;14.60;100.00
66887;BME280;67239;51.680;5.976;2023-08-06T02:55:56;100221.19;;;14.59;100.00
66887;BME280;67239;51.680;5.976;2023-08-06T02:58:31;100214.16;;;14.58;100.00
66887;BME280;67239;51.680;5.976;2023-08-06T03:01:07;100216.91;;;14.56;100.00
66887;BME280;67239;51.680;5.976;2023-08-06T03:03:47;100218.69;;;14.56;100.00
66887;BME280;67239;51.680;5.976;2023-08-06T03:06:21;100218.69;;;14.56;100.00
66887;BME280;67239;51.680;5.976;2023-08-06T03:08:52;100214.25;;;14.56;100.00
66887;BME280;67239;51.680;5.976;2023-08-06T03:11:20;100215.03;;;14.58;100.00
66887;BME280;67239;51.680;5.976;2023-08-06T03:13:49;100215.78;;;14.60;100.00
66887;BME280;67239;51.680;5.976;2023-08-06T03:16:17;100208.69;;;14.61;100.00
66887;BME280;67239;51.680;5.976;2023-08-06T03:18:44;100208.69;;;14.61;100.00
66887;BME280;67239;51.680;5.976;2023-08-06T03:21:11;100198.19;;;14.59;100.00
66887;BME280;67239;51.680;5.976;2023-08-06T03:23:38;100209.63;;;14.60;100.00
66887;BME280;67239;51.680;5.976;2023-08-06T03:26:06;100202.50;;;14.60;100.00
66887;BME280;67239;51.680;5.976;2023-08-06T03:28:33;100205.16;;;14.60;100.00
66887;BME280;67239;51.680;5.976;2023-08-06T03:31:02;100205.38;;;14.57;100.00
66887;BME280;67239;51.680;5.976;2023-08-06T03:33:36;100209.06;;;14.55;100.00
66887;BME280;67239;51.680;5.976;2023-08-06T03:36:08;100210.00;;;14.54;100.00
66887;BME280;67239;51.680;5.976;2023-08-06T03:38:37;100199.38;;;14.54;100.00
66887;BME280;67239;51.680;5.976;2023-08-06T03:41:06;100210.00;;;14.54;100.00
66887;BME280;67239;51.680;5.976;2023-08-06T03:43:34;100209.13;;;14.53;100.00
66887;BME280;67239;51.680;5.976;2023-08-06T03:46:04;100199.44;;;14.52;100.00
66887;BME280;67239;51.680;5.976;2023-08-06T03:48:31;100201.94;;;14.55;100.00
66887;BME280;67239;51.680;5.976;2023-08-06T03:51:00;100202.88;;;14.54;100.00
66887;BME280;67239;51.680;5.976;2023-08-06T03:53:28;100192.38;;;14.53;100.00
66887;BME280;67239;51.680;5.976;2023-08-06T03:55:59;100190.81;;;14.49;100.00
66887;BME280;67239;51.680;5.976;2023-08-06T03:58:28;100197.06;;;14.48;100.00
66887;BME280;67239;51.680;5.976;2023-08-06T04:01:05;100199.72;;;14.48;100.00
66887;BME280;67239;51.680;5.976;2023-08-06T04:03:44;100198.94;;;14.45;100.00
66887;BME280;67239;51.680;5.976;2023-08-06T04:06:12;100198.09;;;14.45;100.00
66887;BME280;67239;51.680;5.976;2023-08-06T04:08:39;100199.91;;;14.44;100.00
66887;BME280;67239;51.680;5.976;2023-08-06T04:11:07;100199.97;;;14.43;100.00
66887;BME280;67239;51.680;5.976;2023-08-06T04:13:35;100202.63;;;14.43;100.00
66887;BME280;67239;51.680;5.976;2023-08-06T04:16:02;100200.84;;;14.43;100.00
66887;BME280;67239;51.680;5.976;2023-08-06T04:18:31;100212.19;;;14.45;100.00
66887;BME280;67239;51.680;5.976;2023-08-06T04:20:59;100208.69;;;14.45;100.00
66887;BME280;67239;51.680;5.976;2023-08-06T04:23:26;100223.69;;;14.46;100.00
66887;BME280;67239;51.680;5.976;2023-08-06T04:25:57;100221.81;;;14.48;100.00
66887;BME280;67239;51.680;5.976;2023-08-06T04:28:30;100215.56;;;14.49;100.00
66887;BME280;67239;51.680;5.976;2023-08-06T04:30:59;100212.66;;;14.54;100.00
66887;BME280;67239;51.680;5.976;2023-08-06T04:33:27;100217.69;;;14.58;100.00
66887;BME280;67239;51.680;5.976;2023-08-06T04:35:57;100217.59;;;14.60;100.00
66887;BME280;67239;51.680;5.976;2023-08-06T04:38:26;100217.47;;;14.62;100.00
66887;BME280;67239;51.680;5.976;2023-08-06T04:40:55;100222.78;;;14.62;100.00
66887;BME280;67239;51.680;5.976;2023-08-06T04:43:23;100225.19;;;14.66;100.00
66887;BME280;67239;51.680;5.976;2023-08-06T04:45:54;100230.34;;;14.69;100.00
66887;BME280;67239;51.680;5.976;2023-08-06T04:48:22;100219.56;;;14.72;100.00
66887;BME280;67239;51.680;5.976;2023-08-06T04:50:50;100223.75;;;14.77;100.00
66887;BME280;67239;51.680;5.976;2023-08-06T04:53:18;100230.50;;;14.82;100.00
66887;BME280;67239;51.680;5.976;2023-08-06T04:55:45;100226.72;;;14.86;100.00
66887;BME280;67239;51.680;5.976;2023-08-06T04:58:13;100226.47;;;14.91;100.00
66887;BME280;67239;51.680;5.976;2023-08-06T05:00:40;100228.75;;;14.97;100.00
66887;BME280;67239;51.680;5.976;2023-08-06T05:03:07;100232.78;;;15.04;100.00
66887;BME280;67239;51.680;5.976;2023-08-06T05:05:34;100231.34;;;15.13;100.00
66887;BME280;67239;51.680;5.976;2023-08-06T05:08:02;100237.66;;;15.27;100.00
66887;BME280;67239;51.680;5.976;2023-08-06T05:10:29;100236.34;;;15.34;100.00
66887;BME280;67239;51.680;5.976;2023-08-06T05:12:56;100233.88;;;15.45;100.00
66887;BME280;67239;51.680;5.976;2023-08-06T05:15:23;100238.75;;;15.53;100.00
66887;BME280;67239;51.680;5.976;2023-08-06T05:17:52;100242.16;;;15.55;100.00
66887;BME280;67239;51.680;5.976;2023-08-06T05:20:20;100240.19;;;15.59;100.00
66887;BME280;67239;51.680;5.976;2023-08-06T05:22:47;100242.72;;;15.60;100.00
66887;BME280;67239;51.680;5.976;2023-08-06T05:25:14;100242.38;;;15.66;100.00
66887;BME280;67239;51.680;5.976;2023-08-06T05:27:41;100244.06;;;15.67;100.00
66887;BME280;67239;51.680;5.976;2023-08-06T05:30:09;100243.97;;;15.69;100.00
66887;BME280;67239;51.680;5.976;2023-08-06T05:32:37;100251.56;;;15.75;100.00
66887;BME280;67239;51.680;5.976;2023-08-06T05:35:04;100248.53;;;15.81;100.00
66887;BME280;67239;51.680;5.976;2023-08-06T05:37:33;100258.34;;;15.95;100.00
66887;BME280;67239;51.680;5.976;2023-08-06T05:40:00;100256.53;;;16.10;100.00
66887;BME280;67239;51.680;5.976;2023-08-06T05:42:28;100260.19;;;16.79;100.00
66887;BME280;67239;51.680;5.976;2023-08-06T05:44:55;100256.44;;;18.00;100.00
66887;BME280;67239;51.680;5.976;2023-08-06T05:47:22;100256.38;;;18.39;97.02
66887;BME280;67239;51.680;5.976;2023-08-06T05:49:49;100258.06;;;18.40;96.19
66887;BME280;67239;51.680;5.976;2023-08-06T05:52:16;100263.22;;;18.30;95.69
66887;BME280;67239;51.680;5.976;2023-08-06T05:54:43;100265.38;;;18.25;95.42
66887;BME280;67239;51.680;5.976;2023-08-06T05:57:10;100265.91;;;18.79;94.41
66887;BME280;67239;51.680;5.976;2023-08-06T05:59:37;100272.16;;;19.04;93.00
66887;BME280;67239;51.680;5.976;2023-08-06T06:02:05;100284.66;;;20.09;88.95
66887;BME280;67239;51.680;5.976;2023-08-06T06:04:32;100282.22;;;20.06;89.71
66887;BME280;67239;51.680;5.976;2023-08-06T06:06:59;100286.34;;;19.87;89.37
66887;BME280;67239;51.680;5.976;2023-08-06T06:09:26;100287.00;;;19.66;89.61
66887;BME280;67239;51.680;5.976;2023-08-06T06:11:53;100285.41;;;19.52;87.80
66887;BME280;67239;51.680;5.976;2023-08-06T06:14:21;100285.34;;;19.30;85.79
66887;BME280;67239;51.680;5.976;2023-08-06T06:16:48;100302.97;;;19.08;86.89
66887;BME280;67239;51.680;5.976;2023-08-06T06:19:15;100300.69;;;18.90;88.61
66887;BME280;67239;51.680;5.976;2023-08-06T06:21:42;100301.09;;;18.73;89.51
66887;BME280;67239;51.680;5.976;2023-08-06T06:24:09;100302.19;;;18.57;90.22
66887;BME280;67239;51.680;5.976;2023-08-06T06:26:36;100313.78;;;18.32;89.49
66887;BME280;67239;51.680;5.976;2023-08-06T06:29:03;100305.28;;;18.14;90.09
66887;BME280;67239;51.680;5.976;2023-08-06T06:31:33;100312.25;;;18.04;90.48
66887;BME280;67239;51.680;5.976;2023-08-06T06:34:01;100310.06;;;17.96;91.08
66887;BME280;67239;51.680;5.976;2023-08-06T06:36:28;100311.34;;;17.90;90.41
66887;BME280;67239;51.680;5.976;2023-08-06T06:38:55;100326.91;;;17.83;90.64
66887;BME280;67239;51.680;5.976;2023-08-06T06:41:22;100319.34;;;17.77;89.75
66887;BME280;67239;51.680;5.976;2023-08-06T06:43:50;100320.50;;;17.73;89.90
66887;BME280;67239;51.680;5.976;2023-08-06T06:46:17;100327.88;;;17.69;89.97
66887;BME280;67239;51.680;5.976;2023-08-06T06:48:44;100325.41;;;17.66;90.30
66887;BME280;67239;51.680;5.976;2023-08-06T06:51:12;100335.41;;;17.63;90.95
66887;BME280;67239;51.680;5.976;2023-08-06T06:53:39;100329.34;;;17.61;91.08
66887;BME280;67239;51.680;5.976;2023-08-06T06:56:07;100327.53;;;17.61;90.60
66887;BME280;67239;51.680;5.976;2023-08-06T06:58:34;100336.28;;;17.63;90.57
66887;BME280;67239;51.680;5.976;2023-08-06T07:01:01;100333.38;;;17.66;90.35
66887;BME280;67239;51.680;5.976;2023-08-06T07:03:28;100339.28;;;17.72;90.15
66887;BME280;67239;51.680;5.976;2023-08-06T07:05:58;100340.75;;;17.76;90.36
66887;BME280;67239;51.680;5.976;2023-08-06T07:08:26;100344.63;;;17.84;90.51
66887;BME280;67239;51.680;5.976;2023-08-06T07:11:04;100341.22;;;17.95;90.15
66887;BME280;67239;51.680;5.976;2023-08-06T07:13:34;100331.53;;;18.07;89.86
66887;BME280;67239;51.680;5.976;2023-08-06T07:16:02;100342.63;;;18.27;88.83
66887;BME280;67239;51.680;5.976;2023-08-06T07:18:30;100340.88;;;18.39;88.09
66887;BME280;67239;51.680;5.976;2023-08-06T07:20:57;100345.38;;;18.38;87.68
66887;BME280;67239;51.680;5.976;2023-08-06T07:23:25;100344.75;;;18.35;87.90
66887;BME280;67239;51.680;5.976;2023-08-06T07:25:53;100351.25;;;18.30;87.63
66887;BME280;67239;51.680;5.976;2023-08-06T07:28:20;100346.38;;;18.24;86.75
66887;BME280;67239;51.680;5.976;2023-08-06T07:30:47;100355.22;;;18.12;86.62
66887;BME280;67239;51.680;5.976;2023-08-06T07:33:14;100353.41;;;17.99;86.38
66887;BME280;67239;51.680;5.976;2023-08-06T07:35:41;100357.94;;;17.84;86.52
66887;BME280;67239;51.680;5.976;2023-08-06T07:38:10;100356.13;;;17.72;86.90
66887;BME280;67239;51.680;5.976;2023-08-06T07:40:38;100355.97;;;17.61;87.65
66887;BME280;67239;51.680;5.976;2023-08-06T07:43:05;100361.84;;;17.53;88.60
66887;BME280;67239;51.680;5.976;2023-08-06T07:45:36;100368.44;;;17.47;89.19
66887;BME280;67239;51.680;5.976;2023-08-06T07:48:04;100368.75;;;17.43;89.76
66887;BME280;67239;51.680;5.976;2023-08-06T07:50:32;100366.28;;;17.39;89.58
66887;BME280;67239;51.680;5.976;2023-08-06T07:52:59;100367.34;;;17.37;89.16
66887;BME280;67239;51.680;5.976;2023-08-06T07:55:26;100378.19;;;17.34;89.14
66887;BME280;67239;51.680;5.976;2023-08-06T07:57:54;100365.00;;;17.32;89.38
66887;BME280;67239;51.680;5.976;2023-08-06T08:00:21;100372.03;;;17.33;89.70
66887;BME280;67239;51.680;5.976;2023-08-06T08:02:48;100369.56;;;17.30;89.71
66887;BME280;67239;51.680;5.976;2023-08-06T08:05:15;100376.91;;;17.27;90.94
66887;BME280;67239;51.680;5.976;2023-08-06T08:07:45;100372.66;;;17.24;91.04
66887;BME280;67239;51.680;5.976;2023-08-06T08:10:12;100370.81;;;17.25;91.60
66887;BME280;67239;51.680;5.976;2023-08-06T08:12:40;100371.47;;;17.28;91.17
66887;BME280;67239;51.680;5.976;2023-08-06T08:15:07;100374.78;;;17.32;91.10
66887;BME280;67239;51.680;5.976;2023-08-06T08:17:34;100370.53;;;17.42;91.21
66887;BME280;67239;51.680;5.976;2023-08-06T08:20:02;100369.53;;;17.58;91.22
66887;BME280;67239;51.680;5.976;2023-08-06T08:22:29;100370.81;;;17.65;89.34
66887;BME280;67239;51.680;5.976;2023-08-06T08:24:56;100373.38;;;17.66;88.72
66887;BME280;67239;51.680;5.976;2023-08-06T08:27:24;100380.22;;;17.70;87.87
66887;BME280;67239;51.680;5.976;2023-08-06T08:29:51;100378.63;;;17.68;88.22
66887;BME280;67239;51.680;5.976;2023-08-06T08:32:18;100375.41;;;17.63;87.98
66887;BME280;67239;51.680;5.976;2023-08-06T08:34:45;100381.91;;;17.59;88.88
66887;BME280;67239;51.680;5.976;2023-08-06T08:37:13;100378.94;;;17.63;89.22
66887;BME280;67239;51.680;5.976;2023-08-06T08:39:40;100375.41;;;17.63;89.71
66887;BME280;67239;51.680;5.976;2023-08-06T08:42:09;100388.34;;;17.69;90.45
66887;BME280;67239;51.680;5.976;2023-08-06T08:44:38;100393.88;;;17.79;90.58
66887;BME280;67239;51.680;5.976;2023-08-06T08:47:06;100389.31;;;17.81;89.48
66887;BME280;67239;51.680;5.976;2023-08-06T08:49:36;100387.28;;;17.84;89.78
66887;BME280;67239;51.680;5.976;2023-08-06T08:52:04;100392.41;;;17.88;89.78
66887;BME280;67239;51.680;5.976;2023-08-06T08:54:38;100391.53;;;17.87;89.65
66887;BME280;67239;51.680;5.976;2023-08-06T08:57:06;100388.16;;;17.85;88.05
66887;BME280;67239;51.680;5.976;2023-08-06T08:59:33;100398.81;;;17.85;87.84
66887;BME280;67239;51.680;5.976;2023-08-06T09:02:01;100401.78;;;17.80;89.62
66887;BME280;67239;51.680;5.976;2023-08-06T09:04:30;100396.22;;;17.70;89.79
66887;BME280;67239;51.680;5.976;2023-08-06T09:07:03;100406.19;;;17.54;90.62
66887;BME280;67239;51.680;5.976;2023-08-06T09:09:34;100412.88;;;17.47;91.83
66887;BME280;67239;51.680;5.976;2023-08-06T09:12:12;100412.28;;;17.29;91.91
66887;BME280;67239;51.680;5.976;2023-08-06T09:14:41;100420.50;;;17.11;93.78
66887;BME280;67239;51.680;5.976;2023-08-06T09:17:09;100418.91;;;16.94;94.93
66887;BME280;67239;51.680;5.976;2023-08-06T09:19:42;100430.16;;;16.70;94.68
66887;BME280;67239;51.680;5.976;2023-08-06T09:22:12;100430.91;;;16.43;93.91
66887;BME280;67239;51.680;5.976;2023-08-06T09:24:41;100429.53;;;16.07;93.70
66887;BME280;67239;51.680;5.976;2023-08-06T09:27:13;100446.69;;;15.71;94.89
66887;BME280;67239;51.680;5.976;2023-08-06T09:29:44;100451.00;;;15.42;95.83
66887;BME280;67239;51.680;5.976;2023-08-06T09:32:12;100435.63;;;15.16;97.66
66887;BME280;67239;51.680;5.976;2023-08-06T09:34:42;100458.91;;;14.95;98.24
66887;BME280;67239;51.680;5.976;2023-08-06T09:37:11;100460.81;;;14.75;99.86
66887;BME280;67239;51.680;5.976;2023-08-06T09:39:39;100459.75;;;14.62;100.00
66887;BME280;67239;51.680;5.976;2023-08-06T09:42:10;100467.31;;;14.52;100.00
66887;BME280;67239;51.680;5.976;2023-08-06T09:44:40;100465.16;;;14.43;100.00
66887;BME280;67239;51.680;5.976;2023-08-06T09:47:07;100457.59;;;14.35;100.00
66887;BME280;67239;51.680;5.976;2023-08-06T09:52:02;100460.66;;;14.27;100.00
66887;BME280;67239;51.680;5.976;2023-08-06T09:54:29;100467.75;;;14.27;100.00
66887;BME280;67239;51.680;5.976;2023-08-06T09:56:58;100466.28;;;14.21;100.00
66887;BME280;67239;51.680;5.976;2023-08-06T09:59:27;100474.41;;;14.18;100.00
66887;BME280;67239;51.680;5.976;2023-08-06T10:01:55;100472.69;;;14.17;100.00
66887;BME280;67239;51.680;5.976;2023-08-06T10:04:24;100477.91;;;14.19;100.00
66887;BME280;67239;51.680;5.976;2023-08-06T10:06:59;100475.94;;;14.22;100.00
66887;BME280;67239;51.680;5.976;2023-08-06T10:09:28;100481.19;;;14.24;100.00
66887;BME280;67239;51.680;5.976;2023-08-06T10:11:56;100481.25;;;14.22;100.00
66887;BME280;67239;51.680;5.976;2023-08-06T10:14:28;100487.34;;;14.24;100.00
66887;BME280;67239;51.680;5.976;2023-08-06T10:16:59;100493.56;;;14.23;100.00
66887;BME280;67239;51.680;5.976;2023-08-06T10:19:28;100495.44;;;14.21;100.00
66887;BME280;67239;51.680;5.976;2023-08-06T10:24:55;100493.81;;;14.19;100.00
66887;BME280;67239;51.680;5.976;2023-08-06T10:27:33;100501.06;;;14.15;100.00
66887;BME280;67239;51.680;5.976;2023-08-06T10:30:28;100509.72;;;14.19;100.00
66887;BME280;67239;51.680;5.976;2023-08-06T10:33:00;100506.22;;;14.18;100.00
66887;BME280;67239;51.680;5.976;2023-08-06T10:35:38;100518.53;;;14.19;100.00
66887;BME280;67239;51.680;5.976;2023-08-06T10:38:17;100519.38;;;14.20;100.00
66887;BME280;67239;51.680;5.976;2023-08-06T10:43:35;100528.13;;;14.22;100.00
66887;BME280;67239;51.680;5.976;2023-08-06T10:46:11;100533.66;;;14.17;100.00
66887;BME280;67239;51.680;5.976;2023-08-06T10:48:47;100536.13;;;14.20;100.00
66887;BME280;67239;51.680;5.976;2023-08-06T10:51:14;100532.50;;;14.23;100.00
66887;BME280;67239;51.680;5.976;2023-08-06T10:53:45;100535.97;;;14.23;100.00
66887;BME280;67239;51.680;5.976;2023-08-06T10:56:17;100535.91;;;14.25;100.00
66887;BME280;67239;51.680;5.976;2023-08-06T10:58:46;100543.72;;;14.28;100.00
66887;BME280;67239;51.680;5.976;2023-08-06T11:01:14;100543.72;;;14.28;100.00
66887;BME280;67239;51.680;5.976;2023-08-06T11:03:45;100549.00;;;14.28;100.00
66887;BME280;67239;51.680;5.976;2023-08-06T11:06:22;100541.94;;;14.28;100.00
66887;BME280;67239;51.680;5.976;2023-08-06T11:08:54;100542.06;;;14.25;100.00
66887;BME280;67239;51.680;5.976;2023-08-06T11:11:22;100548.41;;;14.23;100.00
66887;BME280;67239;51.680;5.976;2023-08-06T11:13:51;100544.81;;;14.24;100.00
66887;BME280;67239;51.680;5.976;2023-08-06T11:16:20;100549.88;;;14.28;100.00
66887;BME280;67239;51.680;5.976;2023-08-06T11:18:55;100553.00;;;14.37;100.00
66887;BME280;67239;51.680;5.976;2023-08-06T11:21:23;100544.72;;;14.43;100.00
66887;BME280;67239;51.680;5.976;2023-08-06T11:23:53;100548.06;;;14.47;100.00
66887;BME280;67239;51.680;5.976;2023-08-06T11:26:21;100554.31;;;14.45;100.00
66887;BME280;67239;51.680;5.976;2023-08-06T11:28:50;100548.16;;;14.45;100.00
66887;BME280;67239;51.680;5.976;2023-08-06T11:31:21;100544.72;;;14.43;100.00
66887;BME280;67239;51.680;5.976;2023-08-06T11:33:52;100539.50;;;14.41;100.00
66887;BME280;67239;51.680;5.976;2023-08-06T11:36:33;100540.53;;;14.39;100.00
66887;BME280;67239;51.680;5.976;2023-08-06T11:39:03;100549.09;;;14.44;100.00
66887;BME280;67239;51.680;5.976;2023-08-06T11:41:35;100538.34;;;14.47;100.00
66887;BME280;67239;51.680;5.976;2023-08-06T11:44:04;100542.63;;;14.50;100.00
66887;BME280;67239;51.680;5.976;2023-08-06T11:46:54;100548.69;;;14.52;100.00
66887;BME280;67239;51.680;5.976;2023-08-06T11:49:57;100554.84;;;14.52;100.00
66887;BME280;67239;51.680;5.976;2023-08-06T11:52:25;100568.19;;;14.51;100.00
66887;BME280;67239;51.680;5.976;2023-08-06T11:55:03;100562.81;;;14.52;100.00
66887;BME280;67239;51.680;5.976;2023-08-06T11:57:39;100572.72;;;14.49;100.00
66887;BME280;67239;51.680;5.976;2023-08-06T12:00:12;100573.03;;;14.42;100.00
66887;BME280;67239;51.680;5.976;2023-08-06T12:02:44;100585.66;;;14.37;100.00
66887;BME280;67239;51.680;5.976;2023-08-06T12:05:17;100599.81;;;14.38;100.00
66887;BME280;67239;51.680;5.976;2023-08-06T12:07:49;100582.22;;;14.35;100.00
66887;BME280;67239;51.680;5.976;2023-08-06T12:10:25;100587.69;;;14.32;100.00
66887;BME280;67239;51.680;5.976;2023-08-06T12:12:53;100593.94;;;14.31;100.00
66887;BME280;67239;51.680;5.976;2023-08-06T12:15:21;100594.00;;;14.29;100.00
66887;BME280;67239;51.680;5.976;2023-08-06T12:17:49;100593.94;;;14.31;100.00
66887;BME280;67239;51.680;5.976;2023-08-06T12:20:17;100595.34;;;14.38;100.00
66887;BME280;67239;51.680;5.976;2023-08-06T12:22:44;100602.13;;;14.44;100.00
66887;BME280;67239;51.680;5.976;2023-08-06T12:25:13;100614.38;;;14.47;100.00
66887;BME280;67239;51.680;5.976;2023-08-06T12:27:42;100618.81;;;14.46;100.00
66887;BME280;67239;51.680;5.976;2023-08-06T12:30:11;100632.19;;;14.44;100.00
66887;BME280;67239;51.680;5.976;2023-08-06T12:32:39;100629.72;;;14.40;100.00
66887;BME280;67239;51.680;5.976;2023-08-06T12:35:07;100635.50;;;14.31;100.00
66887;BME280;67239;51.680;5.976;2023-08-06T12:37:36;100636.81;;;14.22;100.00
66887;BME280;67239;51.680;5.976;2023-08-06T12:40:06;100637.31;;;14.11;100.00
66887;BME280;67239;51.680;5.976;2023-08-06T12:42:53;100636.75;;;14.04;100.00
66887;BME280;67239;51.680;5.976;2023-08-06T12:45:20;100637.63;;;14.05;100.00
66887;BME280;67239;51.680;5.976;2023-08-06T12:47:48;100668.72;;;14.01;100.00
66887;BME280;67239;51.680;5.976;2023-08-06T12:50:16;100647.66;;;13.98;100.00
66887;BME280;67239;51.680;5.976;2023-08-06T12:52:45;100632.69;;;13.97;100.00
66887;BME280;67239;51.680;5.976;2023-08-06T12:55:12;100666.13;;;14.00;100.00
66887;BME280;67239;51.680;5.976;2023-08-06T12:57:39;100653.63;;;14.03;100.00
66887;BME280;67239;51.680;5.976;2023-08-06T13:00:26;100657.81;;;14.07;100.00
66887;BME280;67239;51.680;5.976;2023-08-06T13:02:53;100657.75;;;14.09;100.00
66887;BME280;67239;51.680;5.976;2023-08-06T13:05:21;100649.59;;;14.13;100.00
66887;BME280;67239;51.680;5.976;2023-08-06T13:07:48;100659.75;;;14.23;100.00